Time;durP1;ratioP1;P1;durP2;ratioP2;P2;SDS_P1;SDS_P2;PMS_P1;PMS_P2;Temp;Humidity;BMP_temperature;BMP_pressure;BME280_temperature;BME280_humidity;BME280_pressure;Samples;Min_cycle;Max_cycle;Signal;HPM_P1;HPM_P2
2022/09/03 00:02:02;;;;;;;;;;;19.00;99.90;;;;;;5053976;28;19913;-72
2022/09/03 00:04:35;;;;;;;;;;;19.00;99.90;;;;;;5054479;28;19908;-84
2022/09/03 00:07:02;;;;;;;;;;;19.00;99.90;;;;;;5054017;28;20372;-84
2022/09/03 00:09:38;;;;;;;;;;;19.00;99.90;;;;;;5063791;28;20364;-73
2022/09/03 00:12:19;;;;;;;;;;;18.90;99.90;;;;;;5040742;28;19913;-83
2022/09/03 00:14:52;;;;;;;;;;;18.90;99.90;;;;;;5053445;28;20368;-72
2022/09/03 00:17:23;;;;;;;;;;;18.80;99.90;;;;;;5054092;28;19995;-84
2022/09/03 00:19:54;;;;;;;;;;;18.80;99.90;;;;;;5052983;28;19966;-84
2022/09/03 00:22:24;;;;;;;;;;;18.80;99.90;;;;;;5053865;28;20287;-84
2022/09/03 00:24:50;;;;;;;;;;;18.80;99.90;;;;;;5053961;28;19908;-84
2022/09/03 00:27:17;;;;;;;;;;;18.80;99.90;;;;;;5062010;28;19913;-73
2022/09/03 00:30:09;;;;;;;;;;;18.80;99.90;;;;;;5053103;28;19963;-73
2022/09/03 00:32:45;;;;;;;;;;;18.80;99.90;;;;;;5054084;28;19925;-84
2022/09/03 00:35:30;;;;;;;;;;;18.90;99.90;;;;;;5053091;28;19908;-77
2022/09/03 00:37:56;;;;;;;;;;;18.90;99.90;;;;;;5053371;28;19913;-73
2022/09/03 00:40:34;;;;;;;;;;;18.90;99.90;;;;;;5053861;28;19916;-72
2022/09/03 00:43:04;;;;;;;;;;;18.90;99.90;;;;;;5045580;28;19976;-72
2022/09/03 00:46:01;;;;;;;;;;;19.00;99.90;;;;;;5049856;28;20295;-73
2022/09/03 00:48:30;;;;;;;;;;;19.00;99.90;;;;;;5052979;28;20328;-84
2022/09/03 00:51:08;;;;;;;;;;;19.00;99.90;;;;;;5060303;28;20008;-72
2022/09/03 00:53:50;;;;;;;;;;;18.90;99.90;;;;;;5053465;28;19956;-83
2022/09/03 00:56:22;;;;;;;;;;;18.90;99.90;;;;;;5052229;28;19913;-73
2022/09/03 00:58:57;;;;;;;;;;;18.90;99.90;;;;;;5044567;28;20292;-84
2022/09/03 01:01:29;;;;;;;;;;;18.90;99.90;;;;;;5051875;28;19999;-84
2022/09/03 01:04:24;;;;;;;;;;;18.90;99.90;;;;;;5046680;28;20380;-84
2022/09/03 01:06:59;;;;;;;;;;;18.90;99.90;;;;;;5033150;28;19956;-73
2022/09/03 01:09:39;;;;;;;;;;;18.90;99.90;;;;;;5052050;28;19999;-84
2022/09/03 01:12:13;;;;;;;;;;;18.90;99.90;;;;;;5039789;28;19909;-73
2022/09/03 01:14:45;;;;;;;;;;;18.80;99.90;;;;;;5052754;28;19909;-81
2022/09/03 01:17:29;;;;;;;;;;;18.90;99.90;;;;;;5053307;28;19909;-73
2022/09/03 01:20:00;;;;;;;;;;;18.90;99.90;;;;;;5051939;28;19914;-73
2022/09/03 01:22:44;;;;;;;;;;;18.90;99.90;;;;;;5052571;28;19921;-80
2022/09/03 01:25:16;;;;;;;;;;;18.80;99.90;;;;;;5056232;28;19909;-84
2022/09/03 01:27:51;;;;;;;;;;;18.80;99.90;;;;;;5057676;28;19909;-83
2022/09/03 01:30:18;;;;;;;;;;;18.80;99.90;;;;;;5052576;28;19917;-72
2022/09/03 01:32:49;;;;;;;;;;;18.80;99.90;;;;;;5052321;28;20279;-72
2022/09/03 01:35:20;;;;;;;;;;;18.70;99.90;;;;;;5052288;28;19913;-82
2022/09/03 01:37:58;;;;;;;;;;;18.70;99.90;;;;;;5034202;28;19920;-83
2022/09/03 01:40:33;;;;;;;;;;;18.70;99.90;;;;;;5046031;28;20348;-82
2022/09/03 01:43:00;;;;;;;;;;;18.70;99.90;;;;;;5044849;28;19913;-84
2022/09/03 01:45:30;;;;;;;;;;;18.70;99.90;;;;;;5057501;28;20378;-73
2022/09/03 01:47:58;;;;;;;;;;;18.70;99.90;;;;;;5058836;28;19920;-84
2022/09/03 01:50:33;;;;;;;;;;;18.70;99.90;;;;;;5062912;28;19958;-84
2022/09/03 01:52:59;;;;;;;;;;;18.70;99.90;;;;;;5052700;28;20449;-84
2022/09/03 01:55:32;;;;;;;;;;;18.70;99.90;;;;;;5052700;28;19913;-84
2022/09/03 01:58:18;;;;;;;;;;;18.70;99.90;;;;;;5048022;28;20004;-84
2022/09/03 02:00:46;;;;;;;;;;;18.70;99.90;;;;;;5047840;28;19915;-83
2022/09/03 02:03:12;;;;;;;;;;;18.70;99.90;;;;;;5056409;28;19913;-73
2022/09/03 02:05:38;;;;;;;;;;;18.70;99.90;;;;;;5056609;28;20401;-73
2022/09/03 02:08:05;;;;;;;;;;;18.60;99.90;;;;;;5056514;28;19920;-83
2022/09/03 02:10:31;;;;;;;;;;;18.60;99.90;;;;;;5066806;28;19917;-73
2022/09/03 02:13:19;;;;;;;;;;;18.60;99.90;;;;;;5055486;28;19917;-83
2022/09/03 02:15:47;;;;;;;;;;;18.50;99.90;;;;;;5058298;28;19909;-84
2022/09/03 02:18:24;;;;;;;;;;;18.50;99.90;;;;;;5056204;28;19909;-73
2022/09/03 02:20:51;;;;;;;;;;;18.50;99.90;;;;;;5055965;28;19916;-83
2022/09/03 02:23:17;;;;;;;;;;;18.50;99.90;;;;;;5055265;28;19923;-72
2022/09/03 02:25:50;;;;;;;;;;;18.50;99.90;;;;;;5063671;28;19999;-73
2022/09/03 02:28:15;;;;;;;;;;;18.50;99.90;;;;;;5043007;28;19913;-73
2022/09/03 02:30:41;;;;;;;;;;;18.50;99.90;;;;;;5055610;28;20365;-81
2022/09/03 02:33:07;;;;;;;;;;;18.50;99.90;;;;;;5055799;28;20368;-84
2022/09/03 02:35:33;;;;;;;;;;;18.50;99.90;;;;;;5055240;28;19909;-73
2022/09/03 02:38:08;;;;;;;;;;;18.50;99.90;;;;;;5042566;28;19909;-73
2022/09/03 02:40:34;;;;;;;;;;;18.40;99.90;;;;;;5055434;28;20345;-83
2022/09/03 02:43:00;;;;;;;;;;;18.40;99.90;;;;;;5046826;28;20008;-73
2022/09/03 02:45:27;;;;;;;;;;;18.40;99.90;;;;;;5061356;28;20290;-73
2022/09/03 02:47:54;;;;;;;;;;;18.40;99.90;;;;;;5059251;28;19909;-84
2022/09/03 02:50:19;;;;;;;;;;;18.30;99.90;;;;;;5061862;28;19999;-83
2022/09/03 02:52:45;;;;;;;;;;;18.30;99.90;;;;;;5055722;28;19963;-72
2022/09/03 02:55:11;;;;;;;;;;;18.30;99.90;;;;;;5055592;28;19916;-84
2022/09/03 02:57:36;;;;;;;;;;;18.30;99.90;;;;;;5050929;28;19909;-84
2022/09/03 03:00:02;;;;;;;;;;;18.20;99.90;;;;;;5046926;28;19917;-83
2022/09/03 03:02:28;;;;;;;;;;;18.30;99.90;;;;;;5055228;28;19912;-72
2022/09/03 03:04:54;;;;;;;;;;;18.30;99.90;;;;;;5055371;28;19913;-73
2022/09/03 03:07:20;;;;;;;;;;;18.30;99.90;;;;;;5055228;28;19909;-72
2022/09/03 03:09:45;;;;;;;;;;;18.30;99.90;;;;;;5066449;28;19966;-83
2022/09/03 03:12:11;;;;;;;;;;;18.30;99.90;;;;;;5054036;28;19916;-73
2022/09/03 03:14:36;;;;;;;;;;;18.30;99.90;;;;;;5054627;28;19916;-73
2022/09/03 03:17:02;;;;;;;;;;;18.40;99.90;;;;;;5053792;28;19909;-83
2022/09/03 03:19:27;;;;;;;;;;;18.40;99.90;;;;;;5054803;28;19916;-84
2022/09/03 03:21:53;;;;;;;;;;;18.40;99.90;;;;;;5054845;28;19909;-83
2022/09/03 03:24:18;;;;;;;;;;;18.30;99.90;;;;;;5054453;28;19908;-72
2022/09/03 03:26:44;;;;;;;;;;;18.30;99.90;;;;;;5063708;28;19928;-83
2022/09/03 03:29:13;;;;;;;;;;;18.30;99.90;;;;;;5054444;28;19909;-73
2022/09/03 03:31:38;;;;;;;;;;;18.30;99.90;;;;;;5054667;28;19924;-83
2022/09/03 03:34:04;;;;;;;;;;;18.30;99.90;;;;;;5054741;28;20354;-83
2022/09/03 03:36:30;;;;;;;;;;;18.30;99.90;;;;;;5047045;28;19909;-83
2022/09/03 03:38:57;;;;;;;;;;;18.30;99.90;;;;;;5041693;28;19920;-83
2022/09/03 03:41:24;;;;;;;;;;;18.30;99.90;;;;;;5054899;28;19908;-72
2022/09/03 03:43:57;;;;;;;;;;;18.40;99.90;;;;;;5041144;28;19959;-72
2022/09/03 03:46:23;;;;;;;;;;;18.40;99.90;;;;;;5065841;28;20007;-83
2022/09/03 03:48:49;;;;;;;;;;;18.40;99.90;;;;;;5066289;28;19908;-84
2022/09/03 03:51:15;;;;;;;;;;;18.40;99.90;;;;;;5061354;28;19966;-84
2022/09/03 03:53:41;;;;;;;;;;;18.40;99.90;;;;;;5054143;28;19913;-72
2022/09/03 03:56:08;;;;;;;;;;;18.40;99.90;;;;;;5054494;28;20431;-73
2022/09/03 03:58:34;;;;;;;;;;;18.40;99.90;;;;;;5047844;28;19913;-83
2022/09/03 04:01:03;;;;;;;;;;;18.30;99.90;;;;;;5049023;28;19916;-83
2022/09/03 04:03:29;;;;;;;;;;;18.20;99.90;;;;;;5053811;28;19947;-83
2022/09/03 04:05:55;;;;;;;;;;;18.10;99.90;;;;;;5052806;28;19909;-83
2022/09/03 04:08:21;;;;;;;;;;;18.10;99.90;;;;;;5054724;28;19915;-73
2022/09/03 04:10:47;;;;;;;;;;;18.00;99.90;;;;;;5064451;28;20307;-83
2022/09/03 04:13:13;;;;;;;;;;;18.00;99.90;;;;;;5053865;28;19920;-83
2022/09/03 04:15:38;;;;;;;;;;;18.10;99.90;;;;;;5053639;28;19909;-83
2022/09/03 04:18:04;;;;;;;;;;;18.20;99.90;;;;;;5053020;28;20380;-83
2022/09/03 04:20:29;;;;;;;;;;;18.20;99.90;;;;;;5053710;28;19909;-83
2022/09/03 04:22:59;;;;;;;;;;;18.20;99.90;;;;;;5053083;28;19920;-83
2022/09/03 04:25:25;;;;;;;;;;;18.10;99.90;;;;;;5059345;28;20359;-83
2022/09/03 04:27:51;;;;;;;;;;;18.10;99.90;;;;;;5056924;28;19955;-72
2022/09/03 04:30:17;;;;;;;;;;;18.00;99.90;;;;;;5053415;28;19977;-83
2022/09/03 04:32:55;;;;;;;;;;;17.90;99.90;;;;;;5053629;28;19916;-83
2022/09/03 04:35:21;;;;;;;;;;;17.90;99.90;;;;;;5051571;28;20346;-72
2022/09/03 04:37:47;;;;;;;;;;;17.90;99.90;;;;;;5053349;28;19909;-83
2022/09/03 04:40:12;;;;;;;;;;;18.00;99.90;;;;;;5053352;28;20402;-83
2022/09/03 04:42:38;;;;;;;;;;;18.10;99.90;;;;;;5048858;28;19960;-72
2022/09/03 04:45:04;;;;;;;;;;;18.10;99.90;;;;;;5054362;28;19920;-83
2022/09/03 04:47:29;;;;;;;;;;;18.20;99.90;;;;;;5058268;28;19939;-83
2022/09/03 04:49:55;;;;;;;;;;;18.20;99.90;;;;;;5066699;28;20310;-83
2022/09/03 04:52:21;;;;;;;;;;;18.30;99.90;;;;;;5055280;28;20376;-83
2022/09/03 04:54:46;;;;;;;;;;;18.40;99.90;;;;;;5053323;28;19916;-82
2022/09/03 04:57:12;;;;;;;;;;;18.30;99.90;;;;;;5053371;28;20055;-72
2022/09/03 04:59:39;;;;;;;;;;;18.30;99.90;;;;;;5051102;28;20401;-73
2022/09/03 05:02:05;;;;;;;;;;;18.40;99.90;;;;;;5054053;28;19967;-73
2022/09/03 05:04:31;;;;;;;;;;;18.50;99.90;;;;;;5052961;28;20332;-83
2022/09/03 05:06:56;;;;;;;;;;;18.60;99.90;;;;;;5053343;28;19916;-83
2022/09/03 05:09:22;;;;;;;;;;;18.60;99.90;;;;;;5062234;28;19913;-84
2022/09/03 05:11:47;;;;;;;;;;;18.70;99.90;;;;;;5055183;28;19915;-73
2022/09/03 05:14:13;;;;;;;;;;;18.70;99.90;;;;;;5053150;28;19909;-73
2022/09/03 05:16:38;;;;;;;;;;;18.70;99.90;;;;;;5052894;28;19909;-82
2022/09/03 05:19:07;;;;;;;;;;;18.70;99.90;;;;;;5052740;28;19962;-83
2022/09/03 05:21:34;;;;;;;;;;;18.70;99.90;;;;;;5052858;28;20445;-83
2022/09/03 05:24:00;;;;;;;;;;;18.70;99.90;;;;;;5052693;28;20006;-83
2022/09/03 05:26:27;;;;;;;;;;;18.60;99.90;;;;;;5062697;28;20272;-72
2022/09/03 05:28:54;;;;;;;;;;;18.60;99.90;;;;;;5052917;28;19932;-72
2022/09/03 05:31:20;;;;;;;;;;;18.60;99.90;;;;;;5052500;28;19920;-83
2022/09/03 05:33:46;;;;;;;;;;;18.50;99.90;;;;;;5052897;28;20011;-73
2022/09/03 05:36:13;;;;;;;;;;;18.50;99.90;;;;;;5047465;28;20398;-83
2022/09/03 05:38:39;;;;;;;;;;;18.50;99.90;;;;;;5056968;28;19912;-72
2022/09/03 05:41:05;;;;;;;;;;;18.40;99.90;;;;;;5056083;28;19913;-72
2022/09/03 05:43:31;;;;;;;;;;;18.50;99.90;;;;;;5045300;28;19968;-83
2022/09/03 05:46:07;;;;;;;;;;;18.40;99.90;;;;;;5067330;28;20307;-72
2022/09/03 05:48:34;;;;;;;;;;;18.30;99.90;;;;;;5067998;28;19909;-83
2022/09/03 05:51:00;;;;;;;;;;;18.30;99.90;;;;;;5056789;28;19931;-83
2022/09/03 05:53:26;;;;;;;;;;;18.40;99.90;;;;;;5056677;28;19917;-72
2022/09/03 05:56:02;;;;;;;;;;;18.30;99.90;;;;;;5043362;28;19916;-72
2022/09/03 05:58:32;;;;;;;;;;;18.30;99.90;;;;;;5055138;28;19913;-72
2022/09/03 06:00:58;;;;;;;;;;;18.30;99.90;;;;;;5050491;28;19915;-83
2022/09/03 06:03:23;;;;;;;;;;;18.30;99.90;;;;;;5055808;28;19916;-72
2022/09/03 06:05:53;;;;;;;;;;;18.30;99.90;;;;;;5055796;28;20406;-83
2022/09/03 06:08:19;;;;;;;;;;;18.30;99.90;;;;;;5056514;28;19909;-83
2022/09/03 06:10:44;;;;;;;;;;;18.40;99.90;;;;;;5066821;28;19909;-83
2022/09/03 06:13:10;;;;;;;;;;;18.50;99.90;;;;;;5046473;28;20059;-83
2022/09/03 06:15:36;;;;;;;;;;;18.60;99.90;;;;;;5056202;28;19920;-83
2022/09/03 06:18:01;;;;;;;;;;;18.60;99.90;;;;;;5055828;28;19919;-72
2022/09/03 06:20:27;;;;;;;;;;;18.60;99.90;;;;;;5055761;28;20417;-72
2022/09/03 06:22:54;;;;;;;;;;;18.70;99.90;;;;;;5055621;28;19948;-83
2022/09/03 06:25:20;;;;;;;;;;;18.70;99.90;;;;;;5060754;28;19908;-73
2022/09/03 06:27:46;;;;;;;;;;;18.60;99.90;;;;;;5060177;28;19909;-83
2022/09/03 06:30:12;;;;;;;;;;;18.70;99.90;;;;;;5055494;28;19916;-72
2022/09/03 06:32:51;;;;;;;;;;;18.60;99.90;;;;;;5055659;28;19960;-72
2022/09/03 06:35:16;;;;;;;;;;;18.60;99.90;;;;;;5055594;28;19912;-82
2022/09/03 06:37:42;;;;;;;;;;;18.60;99.90;;;;;;5046238;28;19916;-72
2022/09/03 06:40:12;;;;;;;;;;;18.70;99.90;;;;;;5055681;28;19931;-83
2022/09/03 06:42:40;;;;;;;;;;;18.80;99.90;;;;;;5050504;28;19913;-82
2022/09/03 06:45:06;;;;;;;;;;;18.90;99.90;;;;;;5055672;28;20326;-73
2022/09/03 06:47:32;;;;;;;;;;;19.10;99.90;;;;;;5058346;28;19995;-83
2022/09/03 06:49:59;;;;;;;;;;;19.30;99.90;;;;;;5067926;28;20406;-83
2022/09/03 06:52:24;;;;;;;;;;;19.40;99.90;;;;;;5056458;28;19917;-83
2022/09/03 06:54:50;;;;;;;;;;;19.70;99.90;;;;;;5055248;28;20150;-83
2022/09/03 06:57:16;;;;;;;;;;;19.90;99.90;;;;;;5054063;28;19920;-72
2022/09/03 06:59:42;;;;;;;;;;;20.20;99.90;;;;;;5047399;28;19913;-83
2022/09/03 07:02:08;;;;;;;;;;;20.50;99.90;;;;;;5054260;28;19971;-83
2022/09/03 07:04:34;;;;;;;;;;;20.60;99.90;;;;;;5053445;28;19909;-83
2022/09/03 07:06:59;;;;;;;;;;;20.60;99.90;;;;;;5054671;28;19978;-83
2022/09/03 07:09:25;;;;;;;;;;;20.90;99.90;;;;;;5064679;28;20315;-83
2022/09/03 07:11:51;;;;;;;;;;;21.00;99.90;;;;;;5056692;28;20264;-72
2022/09/03 07:14:17;;;;;;;;;;;21.00;99.90;;;;;;5055175;28;19908;-73
2022/09/03 07:16:44;;;;;;;;;;;21.00;99.90;;;;;;5054454;28;20382;-73
2022/09/03 07:19:12;;;;;;;;;;;20.90;99.90;;;;;;5053991;28;19909;-83
2022/09/03 07:21:40;;;;;;;;;;;21.00;99.90;;;;;;5054755;28;19955;-73
2022/09/03 07:24:06;;;;;;;;;;;21.10;99.90;;;;;;5054674;28;20287;-83
2022/09/03 07:26:33;;;;;;;;;;;21.20;99.90;;;;;;5063681;28;19909;-72
2022/09/03 07:29:01;;;;;;;;;;;21.10;99.90;;;;;;5054827;28;19909;-83
2022/09/03 07:31:28;;;;;;;;;;;21.10;99.90;;;;;;5054176;28;19925;-84
2022/09/03 07:33:57;;;;;;;;;;;21.30;99.90;;;;;;5054616;28;19909;-83
2022/09/03 07:36:24;;;;;;;;;;;21.20;99.90;;;;;;5047485;28;20418;-84
2022/09/03 07:38:49;;;;;;;;;;;21.20;99.90;;;;;;5047960;28;19916;-83
2022/09/03 07:41:15;;;;;;;;;;;21.40;99.90;;;;;;5054487;28;19909;-83
2022/09/03 07:43:47;;;;;;;;;;;21.50;99.90;;;;;;5041115;28;20261;-83
2022/09/03 07:46:14;;;;;;;;;;;21.70;99.90;;;;;;5046672;28;19916;-83
2022/09/03 07:48:40;;;;;;;;;;;21.70;99.90;;;;;;5058172;28;20275;-73
2022/09/03 07:51:06;;;;;;;;;;;21.60;99.90;;;;;;5060858;28;19912;-73
2022/09/03 07:53:32;;;;;;;;;;;21.80;99.90;;;;;;5054632;28;19913;-83
2022/09/03 07:56:01;;;;;;;;;;;23.10;99.90;;;;;;5054359;28;19944;-74
2022/09/03 07:58:28;;;;;;;;;;;24.00;99.90;;;;;;5051485;28;19916;-84
2022/09/03 08:00:55;;;;;;;;;;;24.40;99.90;;;;;;5040643;28;19909;-73
2022/09/03 08:03:21;;;;;;;;;;;25.90;99.90;;;;;;5034183;28;19920;-84
2022/09/03 08:05:47;;;;;;;;;;;26.00;99.90;;;;;;5033629;28;19913;-84
2022/09/03 08:08:13;;;;;;;;;;;26.20;99.90;;;;;;5034144;28;19909;-73
2022/09/03 08:10:39;;;;;;;;;;;26.40;99.90;;;;;;5064716;28;19947;-83
2022/09/03 08:13:05;;;;;;;;;;;26.80;99.90;;;;;;5053497;28;19909;-84
2022/09/03 08:15:31;;;;;;;;;;;24.90;99.90;;;;;;5054024;28;19909;-74
2022/09/03 08:17:58;;;;;;;;;;;23.70;99.90;;;;;;5053280;28;19957;-83
2022/09/03 08:20:24;;;;;;;;;;;22.70;99.90;;;;;;5053630;28;19990;-74
2022/09/03 08:22:50;;;;;;;;;;;22.50;99.90;;;;;;5053235;28;19948;-73
2022/09/03 08:25:15;;;;;;;;;;;23.60;99.90;;;;;;5057795;28;20402;-83
2022/09/03 08:27:41;;;;;;;;;;;24.00;99.90;;;;;;5057751;28;19997;-73
2022/09/03 08:30:10;;;;;;;;;;;24.60;99.90;;;;;;5053167;28;19913;-84
2022/09/03 08:32:36;;;;;;;;;;;23.00;99.90;;;;;;5053690;28;19978;-85
2022/09/03 08:35:02;;;;;;;;;;;22.20;99.90;;;;;;5053331;28;19909;-73
2022/09/03 08:37:27;;;;;;;;;;;23.00;99.90;;;;;;5039475;28;19909;-85
2022/09/03 08:39:53;;;;;;;;;;;25.20;99.90;;;;;;5053396;28;19948;-85
2022/09/03 08:42:31;;;;;;;;;;;26.00;99.90;;;;;;5049414;28;19924;-73
2022/09/03 08:44:59;;;;;;;;;;;27.00;99.90;;;;;;5052405;28;20298;-84
2022/09/03 08:47:25;;;;;;;;;;;25.90;99.90;;;;;;5057188;28;19908;-85
2022/09/03 08:50:12;;;;;;;;;;;26.90;99.90;;;;;;5065492;28;20367;-73
2022/09/03 08:52:49;;;;;;;;;;;27.60;99.90;;;;;;5040368;28;19916;-74
2022/09/03 08:55:17;;;;;;;;;;;26.40;99.90;;;;;;5053394;28;19909;-73
2022/09/03 08:57:45;;;;;;;;;;;24.90;99.90;;;;;;5053153;28;19916;-73
2022/09/03 09:00:11;;;;;;;;;;;23.50;99.90;;;;;;5051814;28;19909;-85
2022/09/03 09:02:37;;;;;;;;;;;26.00;99.90;;;;;;5053365;28;20424;-74
2022/09/03 09:05:09;;;;;;;;;;;27.80;99.90;;;;;;5053234;28;19909;-85
2022/09/03 09:07:52;;;;;;;;;;;29.00;98.80;;;;;;5052509;28;19916;-74
2022/09/03 09:10:50;;;;;;;;;;;27.90;99.10;;;;;;5063311;28;20351;-74
2022/09/03 09:13:26;;;;;;;;;;;27.80;99.00;;;;;;5049019;28;20376;-86
2022/09/03 09:15:55;;;;;;;;;;;28.50;97.80;;;;;;5046234;28;19908;-86
2022/09/03 09:18:34;;;;;;;;;;;29.50;97.20;;;;;;5052701;28;19932;-74
2022/09/03 09:21:17;;;;;;;;;;;29.10;97.10;;;;;;5052896;28;19944;-75
2022/09/03 09:23:47;;;;;;;;;;;28.90;97.10;;;;;;5052649;28;19913;-87
2022/09/03 09:26:14;;;;;;;;;;;29.30;97.20;;;;;;5061451;28;19916;-87
2022/09/03 09:28:41;;;;;;;;;;;29.80;97.00;;;;;;5053006;28;20106;-87
2022/09/03 09:31:08;;;;;;;;;;;29.40;97.10;;;;;;5052670;28;19924;-87
2022/09/03 09:33:34;;;;;;;;;;;29.30;97.10;;;;;;5052982;28;19962;-74
2022/09/03 09:36:02;;;;;;;;;;;29.00;97.90;;;;;;5052161;28;20346;-86
2022/09/03 09:38:28;;;;;;;;;;;28.60;97.70;;;;;;5052439;28;19909;-86
2022/09/03 09:40:56;;;;;;;;;;;29.40;96.80;;;;;;5052809;28;20367;-87
2022/09/03 09:43:21;;;;;;;;;;;28.70;97.40;;;;;;5041675;28;19956;-74
2022/09/03 09:45:51;;;;;;;;;;;27.10;97.90;;;;;;5061396;28;19948;-74
2022/09/03 09:48:30;;;;;;;;;;;24.80;99.90;;;;;;5061742;28;19962;-86
2022/09/03 09:51:09;;;;;;;;;;;25.60;99.90;;;;;;5057707;28;19913;-75
2022/09/03 09:53:35;;;;;;;;;;;28.00;98.90;;;;;;5052959;28;19913;-87
2022/09/03 09:56:03;;;;;;;;;;;28.90;97.70;;;;;;5052768;28;19959;-87
2022/09/03 09:58:29;;;;;;;;;;;29.50;96.60;;;;;;5048872;28;19909;-75
2022/09/03 10:00:56;;;;;;;;;;;28.60;97.10;;;;;;5047640;28;20453;-83
2022/09/03 10:03:21;;;;;;;;;;;26.70;99.70;;;;;;5052683;28;19913;-75
2022/09/03 10:05:57;;;;;;;;;;;26.00;99.90;;;;;;5052712;28;19915;-75
2022/09/03 10:08:23;;;;;;;;;;;27.00;99.90;;;;;;5052764;28;19909;-84
2022/09/03 10:10:49;;;;;;;;;;;24.90;99.90;;;;;;5062382;28;19944;-74
2022/09/03 10:13:20;;;;;;;;;;;26.00;99.90;;;;;;5052238;28;19908;-75
2022/09/03 10:15:49;;;;;;;;;;;26.10;99.70;;;;;;5045930;28;19916;-86
2022/09/03 10:18:25;;;;;;;;;;;25.70;99.40;;;;;;5051205;28;20387;-75
2022/09/03 10:21:02;;;;;;;;;;;25.90;99.00;;;;;;5052071;28;20011;-87
2022/09/03 10:23:31;;;;;;;;;;;25.30;99.60;;;;;;5055522;28;20020;-75
2022/09/03 10:26:15;;;;;;;;;;;25.20;99.90;;;;;;5062903;28;20299;-75
2022/09/03 10:28:42;;;;;;;;;;;24.80;99.90;;;;;;5056101;28;19909;-85
2022/09/03 10:31:17;;;;;;;;;;;24.60;99.90;;;;;;5055623;28;19921;-75
2022/09/03 10:33:55;;;;;;;;;;;24.40;99.90;;;;;;5055820;28;20360;-86
2022/09/03 10:36:33;;;;;;;;;;;24.40;99.90;;;;;;5048966;28;20372;-75
2022/09/03 10:39:10;;;;;;;;;;;24.60;99.90;;;;;;5044598;28;19913;-75
2022/09/03 10:41:36;;;;;;;;;;;24.40;99.90;;;;;;5055866;28;19916;-87
2022/09/03 10:44:05;;;;;;;;;;;24.70;99.90;;;;;;5043721;28;20016;-87
2022/09/03 10:46:43;;;;;;;;;;;24.40;99.90;;;;;;5065913;28;20457;-87
2022/09/03 10:49:19;;;;;;;;;;;24.20;99.90;;;;;;5067472;28;19908;-86
2022/09/03 10:51:54;;;;;;;;;;;24.00;99.90;;;;;;5057367;28;19909;-75
2022/09/03 10:54:21;;;;;;;;;;;23.50;99.90;;;;;;5042858;28;19920;-87
2022/09/03 10:57:05;;;;;;;;;;;23.50;99.90;;;;;;5055450;28;19913;-75
2022/09/03 10:59:35;;;;;;;;;;;23.60;99.90;;;;;;5049100;28;19919;-84
2022/09/03 11:02:00;;;;;;;;;;;23.90;99.90;;;;;;5055042;28;20424;-76
2022/09/03 11:04:44;;;;;;;;;;;23.70;99.90;;;;;;5055590;28;19921;-75
2022/09/03 11:07:12;;;;;;;;;;;23.80;99.90;;;;;;5055189;28;20003;-75
2022/09/03 11:09:37;;;;;;;;;;;23.60;99.90;;;;;;5065613;28;20356;-83
2022/09/03 11:12:05;;;;;;;;;;;23.70;99.90;;;;;;5054917;28;19909;-75
2022/09/03 11:14:39;;;;;;;;;;;23.60;99.90;;;;;;5049327;28;19913;-85
2022/09/03 11:17:07;;;;;;;;;;;23.80;99.90;;;;;;5042961;28;19962;-86
2022/09/03 11:19:36;;;;;;;;;;;24.00;99.90;;;;;;5054777;28;20393;-85
2022/09/03 11:22:05;;;;;;;;;;;23.80;99.90;;;;;;5053949;28;20449;-85
2022/09/03 11:24:31;;;;;;;;;;;24.40;99.90;;;;;;5054791;28;19913;-75
2022/09/03 11:27:06;;;;;;;;;;;24.40;99.40;;;;;;5064242;28;19955;-74
2022/09/03 11:29:47;;;;;;;;;;;23.90;99.80;;;;;;5052873;28;19989;-86
2022/09/03 11:32:17;;;;;;;;;;;23.90;99.90;;;;;;5054579;28;20000;-86
2022/09/03 11:34:45;;;;;;;;;;;23.80;99.50;;;;;;5054002;28;19916;-75
2022/09/03 11:37:18;;;;;;;;;;;24.20;98.60;;;;;;5054428;28;19915;-75
2022/09/03 11:39:44;;;;;;;;;;;23.90;98.00;;;;;;5049678;28;19909;-84
2022/09/03 11:42:11;;;;;;;;;;;23.20;97.80;;;;;;5054532;28;20307;-75
2022/09/03 11:44:36;;;;;;;;;;;23.30;98.10;;;;;;5041727;28;19916;-75
2022/09/03 11:47:12;;;;;;;;;;;23.00;98.60;;;;;;5054743;28;20338;-85
2022/09/03 11:49:42;;;;;;;;;;;23.10;98.50;;;;;;5044142;28;20012;-86
2022/09/03 11:52:09;;;;;;;;;;;22.70;98.60;;;;;;5059533;28;19913;-75
2022/09/03 11:54:42;;;;;;;;;;;22.80;99.00;;;;;;5053361;28;20008;-75
2022/09/03 11:57:11;;;;;;;;;;;23.10;98.70;;;;;;5054414;28;19909;-87
2022/09/03 11:59:36;;;;;;;;;;;22.90;98.90;;;;;;5048305;28;19984;-86
2022/09/03 12:02:05;;;;;;;;;;;22.90;99.30;;;;;;5054348;28;19913;-85
2022/09/03 12:04:35;;;;;;;;;;;22.70;99.50;;;;;;5053965;28;19962;-84
2022/09/03 12:07:19;;;;;;;;;;;22.80;99.50;;;;;;5053898;28;19909;-85
2022/09/03 12:10:04;;;;;;;;;;;23.10;99.90;;;;;;5063274;28;19912;-86
2022/09/03 12:12:29;;;;;;;;;;;23.30;99.20;;;;;;5053806;28;19919;-87
2022/09/03 12:15:05;;;;;;;;;;;23.40;99.40;;;;;;5047939;28;19912;-85
2022/09/03 12:18:17;;;;;;;;;;;23.50;99.30;;;;;;5053910;28;19963;-86
2022/09/03 12:20:34;;;;;;;;;;;23.70;98.60;;;;;;5053278;28;19909;-75
2022/09/03 12:23:02;;;;;;;;;;;23.30;99.80;;;;;;5053387;28;20015;-75
2022/09/03 12:25:27;;;;;;;;;;;23.50;99.30;;;;;;5059619;28;20275;-86
2022/09/03 12:27:53;;;;;;;;;;;23.20;99.10;;;;;;5057089;28;19915;-86
2022/09/03 12:30:22;;;;;;;;;;;23.00;99.90;;;;;;5053568;28;19916;-86
2022/09/03 12:32:48;;;;;;;;;;;22.80;99.80;;;;;;5052508;28;20398;-85
2022/09/03 12:35:13;;;;;;;;;;;22.90;99.90;;;;;;5053327;28;19916;-83
2022/09/03 12:37:41;;;;;;;;;;;22.80;99.90;;;;;;5053293;28;19909;-74
2022/09/03 12:40:15;;;;;;;;;;;22.80;99.60;;;;;;5053646;28;20299;-85
2022/09/03 12:42:40;;;;;;;;;;;22.90;99.90;;;;;;5048870;28;20292;-86
2022/09/03 12:45:07;;;;;;;;;;;22.80;99.60;;;;;;5044235;28;19920;-84
2022/09/03 12:47:37;;;;;;;;;;;22.70;99.90;;;;;;5056585;28;19916;-75
2022/09/03 12:50:10;;;;;;;;;;;22.70;99.90;;;;;;5067518;28;19908;-85
2022/09/03 12:52:47;;;;;;;;;;;23.10;99.90;;;;;;5054398;28;19913;-85
2022/09/03 12:55:21;;;;;;;;;;;23.40;99.20;;;;;;5053318;28;19909;-85
2022/09/03 12:57:51;;;;;;;;;;;23.20;99.30;;;;;;5053060;28;19912;-86
2022/09/03 13:00:17;;;;;;;;;;;23.00;98.80;;;;;;5047523;28;20276;-75
2022/09/03 13:02:50;;;;;;;;;;;22.80;99.00;;;;;;5053378;28;20402;-75
2022/09/03 13:05:17;;;;;;;;;;;23.30;98.10;;;;;;5052842;28;19909;-85
2022/09/03 13:07:46;;;;;;;;;;;23.00;98.10;;;;;;5053292;28;19932;-86
2022/09/03 13:10:32;;;;;;;;;;;23.30;98.30;;;;;;5063179;28;20383;-85
2022/09/03 13:12:59;;;;;;;;;;;23.20;98.10;;;;;;5052624;28;19913;-84
2022/09/03 13:15:25;;;;;;;;;;;23.50;97.80;;;;;;5047838;28;19940;-75
2022/09/03 13:17:56;;;;;;;;;;;23.50;97.80;;;;;;5052798;28;19971;-86
2022/09/03 13:20:32;;;;;;;;;;;23.30;97.30;;;;;;5052092;28;19916;-86
2022/09/03 13:23:12;;;;;;;;;;;23.10;97.50;;;;;;5052677;28;19921;-86
2022/09/03 13:25:44;;;;;;;;;;;23.20;97.50;;;;;;5060155;28;19958;-76
2022/09/03 13:28:15;;;;;;;;;;;23.30;96.90;;;;;;5053283;28;19915;-74
2022/09/03 13:31:00;;;;;;;;;;;23.40;96.80;;;;;;5052538;28;19928;-86
2022/09/03 13:33:48;;;;;;;;;;;23.50;96.50;;;;;;5052860;28;19909;-85
2022/09/03 13:36:14;;;;;;;;;;;23.30;96.10;;;;;;5052412;28;19931;-86
2022/09/03 13:38:50;;;;;;;;;;;23.20;96.60;;;;;;5047236;28;19909;-75
2022/09/03 13:41:28;;;;;;;;;;;23.20;95.90;;;;;;5039841;28;19909;-75
2022/09/03 13:43:58;;;;;;;;;;;23.10;96.80;;;;;;5039147;28;19914;-86
2022/09/03 13:46:39;;;;;;;;;;;23.40;96.70;;;;;;5063446;28;20272;-86
2022/09/03 13:52:02;;;;;;;;;;;23.50;95.70;;;;;;5053197;28;20424;-86
2022/09/03 13:54:54;;;;;;;;;;;23.60;95.30;;;;;;5052882;28;19917;-75
2022/09/03 13:57:31;;;;;;;;;;;23.40;95.50;;;;;;5042724;28;20007;-85
2022/09/03 13:59:59;;;;;;;;;;;23.20;95.30;;;;;;5048625;28;19988;-86
2022/09/03 14:02:51;;;;;;;;;;;23.20;96.40;;;;;;5056520;28;19912;-85
2022/09/03 14:05:33;;;;;;;;;;;23.30;96.20;;;;;;5050012;28;19920;-85
2022/09/03 14:08:12;;;;;;;;;;;23.40;96.30;;;;;;5056174;28;19909;-75
2022/09/03 14:10:51;;;;;;;;;;;23.70;96.50;;;;;;5066801;28;20303;-84
2022/09/03 14:13:29;;;;;;;;;;;23.50;97.30;;;;;;5056048;28;20392;-86
2022/09/03 14:16:03;;;;;;;;;;;23.50;97.20;;;;;;5050704;28;20000;-85
2022/09/03 14:18:38;;;;;;;;;;;23.40;97.60;;;;;;5055973;28;19913;-84
2022/09/03 14:21:07;;;;;;;;;;;23.20;97.50;;;;;;5055901;28;19913;-75
2022/09/03 14:23:56;;;;;;;;;;;23.10;97.40;;;;;;5055809;28;19913;-85
2022/09/03 14:26:26;;;;;;;;;;;23.40;96.00;;;;;;5067410;28;19909;-85
2022/09/03 14:29:00;;;;;;;;;;;23.60;97.10;;;;;;5055796;28;20390;-86
2022/09/03 14:31:44;;;;;;;;;;;24.00;95.60;;;;;;5054107;28;19921;-75
2022/09/03 14:34:22;;;;;;;;;;;23.80;95.40;;;;;;5055857;28;19909;-75
2022/09/03 14:37:02;;;;;;;;;;;23.40;95.10;;;;;;5055507;28;19909;-75